createdAt,value
2019-06-20T00:00:36.642Z,10.60
2019-06-20T00:01:41.407Z,12.68
2019-06-20T00:02:46.861Z,13.85
2019-06-20T00:03:51.987Z,8.25
2019-06-20T00:04:57.447Z,16.73
2019-06-20T00:06:08.005Z,7.33
2019-06-20T00:07:14.329Z,13.93
2019-06-20T00:08:19.361Z,8.90
2019-06-20T00:09:24.922Z,10.50
2019-06-20T00:10:29.820Z,10.90
2019-06-20T00:11:35.523Z,14.78
2019-06-20T00:12:40.599Z,10.90
2019-06-20T00:13:46.360Z,10.98
2019-06-20T00:14:51.613Z,8.80
2019-06-20T00:15:57.425Z,6.80
2019-06-20T00:17:02.781Z,7.90
2019-06-20T00:18:08.441Z,22.07
2019-06-20T00:19:13.300Z,7.37
2019-06-20T00:20:19.158Z,12.13
2019-06-20T00:21:24.109Z,7.97
2019-06-20T00:22:29.452Z,8.35
2019-06-20T00:23:34.463Z,10.08
2019-06-20T00:24:39.732Z,8.15
2019-06-20T00:25:45.120Z,8.60
2019-06-20T00:26:51.083Z,8.85
2019-06-20T00:27:56.110Z,10.15
2019-06-20T00:29:01.805Z,7.25
2019-06-20T00:30:07.236Z,12.35
2019-06-20T00:31:12.756Z,8.03
2019-06-20T00:32:20.719Z,10.95
2019-06-20T00:33:26.265Z,12.63
2019-06-20T00:34:31.167Z,10.40
2019-06-20T00:35:36.539Z,10.75
2019-06-20T00:36:41.362Z,9.20
2019-06-20T00:37:48.027Z,12.28
2019-06-20T00:38:52.987Z,12.50
2019-06-20T00:40:00.328Z,10.95
2019-06-20T00:41:05.220Z,9.70
2019-06-20T00:42:10.447Z,13.30
2019-06-20T00:43:17.965Z,8.85
2019-06-20T00:44:22.230Z,18.73
2019-06-20T00:45:26.985Z,21.23
2019-06-20T00:46:32.643Z,17.17
2019-06-20T00:47:37.476Z,13.98
2019-06-20T00:48:42.768Z,10.20
2019-06-20T00:49:47.456Z,13.48
2019-06-20T00:50:53.092Z,9.65
2019-06-20T00:51:57.814Z,8.95
2019-06-20T00:53:03.358Z,11.45
2019-06-20T00:54:08.118Z,17.67
2019-06-20T00:55:14.787Z,18.70
2019-06-20T00:56:19.578Z,10.95
2019-06-20T00:57:24.927Z,13.55
2019-06-20T00:58:30.133Z,13.50
2019-06-20T00:59:35.555Z,13.72
2019-06-20T01:00:40.662Z,16.40
2019-06-20T01:01:47.793Z,15.88
2019-06-20T01:02:53.853Z,15.93
2019-06-20T01:03:59.174Z,16.12
2019-06-20T01:05:04.120Z,15.72
2019-06-20T01:06:09.370Z,10.05
2019-06-20T01:07:14.307Z,16.75
2019-06-20T01:08:19.639Z,13.68
2019-06-20T01:09:24.358Z,15.70
2019-06-20T01:10:29.661Z,23.75
2019-06-20T01:11:34.370Z,10.95
2019-06-20T01:12:39.800Z,12.03
2019-06-20T01:13:44.619Z,14.30
2019-06-20T01:14:49.864Z,15.15
2019-06-20T01:15:54.655Z,16.42
2019-06-20T01:16:59.953Z,11.85
2019-06-20T01:18:04.945Z,16.12
2019-06-20T01:19:10.239Z,14.00
2019-06-20T01:20:15.162Z,7.78
2019-06-20T01:21:20.732Z,12.82
2019-06-20T01:22:26.532Z,8.05
2019-06-20T01:23:33.005Z,8.85
2019-06-20T01:24:42.845Z,9.45
2019-06-20T01:25:48.220Z,10.18
2019-06-20T01:26:59.323Z,7.17
2019-06-20T01:28:04.591Z,8.28
2019-06-20T01:29:09.316Z,7.22
2019-06-20T01:30:14.855Z,7.55
2019-06-20T01:31:20.094Z,10.75
2019-06-20T01:32:25.416Z,7.60
2019-06-20T01:33:30.404Z,10.30
2019-06-20T01:34:35.770Z,7.22
2019-06-20T01:35:40.488Z,5.78
2019-06-20T01:36:45.929Z,13.62
2019-06-20T01:37:50.654Z,8.43
2019-06-20T01:38:55.934Z,5.90
2019-06-20T01:40:00.760Z,8.58
2019-06-20T01:41:06.524Z,9.50
2019-06-20T01:42:11.288Z,7.67
2019-06-20T01:43:16.966Z,6.03
2019-06-20T01:44:21.836Z,13.55
2019-06-20T01:45:27.164Z,6.75
2019-06-20T01:46:31.801Z,10.78
2019-06-20T01:47:37.062Z,8.63
2019-06-20T01:48:41.793Z,7.80
2019-06-20T01:49:47.339Z,5.10
2019-06-20T01:50:51.999Z,13.15
2019-06-20T01:51:57.259Z,6.58
2019-06-20T01:53:01.956Z,11.83
2019-06-20T01:54:07.300Z,10.32
2019-06-20T01:55:12.114Z,7.95
2019-06-20T01:56:17.370Z,6.85
2019-06-20T01:57:22.055Z,8.95
2019-06-20T01:58:27.292Z,7.20
2019-06-20T01:59:32.100Z,8.08
2019-06-20T02:00:46.864Z,6.03
2019-06-20T02:01:51.546Z,6.90
2019-06-20T02:02:56.781Z,8.03
2019-06-20T02:04:01.464Z,9.80
2019-06-20T02:05:07.512Z,6.58
2019-06-20T02:06:12.169Z,4.95
2019-06-20T02:07:17.780Z,8.15
2019-06-20T02:08:22.503Z,7.50
2019-06-20T02:09:27.740Z,8.70
2019-06-20T02:10:32.539Z,6.20
2019-06-20T02:11:38.174Z,8.70
2019-06-20T02:12:42.830Z,10.93
2019-06-20T02:13:48.140Z,14.38
2019-06-20T02:14:52.834Z,11.45
2019-06-20T02:15:58.143Z,6.60
2019-06-20T02:17:02.828Z,6.05
2019-06-20T02:18:09.012Z,5.87
2019-06-20T02:19:14.234Z,8.88
2019-06-20T02:20:49.020Z,7.42
2019-06-20T02:21:53.836Z,5.15
2019-06-20T02:22:59.182Z,6.37
2019-06-20T02:24:04.316Z,6.17
2019-06-20T02:25:10.374Z,7.85
2019-06-20T02:26:15.036Z,8.83
2019-06-20T02:27:22.017Z,7.72
2019-06-20T02:28:27.006Z,6.33
2019-06-20T02:29:32.271Z,10.53
2019-06-20T02:30:36.950Z,7.53
2019-06-20T02:31:42.241Z,9.85
2019-06-20T02:32:46.944Z,10.32
2019-06-20T02:33:52.176Z,6.65
2019-06-20T02:34:57.064Z,5.25
2019-06-20T02:36:02.366Z,11.33
2019-06-20T02:37:07.020Z,9.80
2019-06-20T02:38:12.305Z,8.38
2019-06-20T02:39:17.778Z,7.40
2019-06-20T02:40:23.160Z,11.33
2019-06-20T02:41:27.869Z,11.85
2019-06-20T02:42:33.693Z,8.20
2019-06-20T02:43:38.523Z,8.03
2019-06-20T02:44:43.837Z,8.55
2019-06-20T02:45:48.540Z,7.35
2019-06-20T02:46:53.789Z,8.90
2019-06-20T02:47:59.024Z,18.25
2019-06-20T02:49:04.460Z,10.43
2019-06-20T02:50:09.544Z,12.55
2019-06-20T02:51:14.896Z,9.65
2019-06-20T02:54:34.432Z,6.42
2019-06-20T02:55:39.894Z,11.08
2019-06-20T02:56:44.663Z,8.88
2019-06-20T02:57:49.899Z,10.70
2019-06-20T02:58:54.544Z,9.63
2019-06-20T02:59:59.992Z,9.08
2019-06-20T03:01:05.798Z,13.00
2019-06-20T03:02:11.203Z,11.05
2019-06-20T03:03:15.896Z,16.07
2019-06-20T03:04:21.135Z,8.45
2019-06-20T03:05:26.024Z,11.78
2019-06-20T03:06:31.315Z,8.25
2019-06-20T03:07:36.409Z,10.90
2019-06-20T03:08:41.632Z,8.63
2019-06-20T03:09:46.323Z,11.75
2019-06-20T03:10:51.753Z,9.80
2019-06-20T03:11:56.831Z,13.65
2019-06-20T03:13:02.168Z,10.30
2019-06-20T03:14:06.815Z,8.40
2019-06-20T03:15:12.283Z,8.63
2019-06-20T03:16:16.986Z,10.93
2019-06-20T03:17:22.205Z,12.25
2019-06-20T03:18:26.846Z,14.80
2019-06-20T03:19:32.099Z,15.13
2019-06-20T03:20:39.969Z,16.30
2019-06-20T03:21:45.254Z,17.00
2019-06-20T03:22:50.355Z,20.77
2019-06-20T03:23:55.657Z,27.15
2019-06-20T03:25:00.267Z,11.83
2019-06-20T03:26:05.739Z,16.15
2019-06-20T03:27:10.445Z,16.82
2019-06-20T03:28:19.079Z,21.62
2019-06-20T03:29:24.193Z,20.48
2019-06-20T03:30:29.542Z,19.57
2019-06-20T03:31:34.178Z,15.10
2019-06-20T03:32:39.418Z,17.77
2019-06-20T03:33:44.072Z,10.68
2019-06-20T03:34:49.231Z,14.20
2019-06-20T03:35:53.880Z,13.40
2019-06-20T03:36:59.111Z,20.27
2019-06-20T03:38:03.829Z,16.15
2019-06-20T03:39:09.071Z,12.73
2019-06-20T03:40:13.913Z,12.75
2019-06-20T03:41:19.563Z,14.03
2019-06-20T03:42:24.201Z,14.18
2019-06-20T03:43:29.538Z,15.60
2019-06-20T03:44:34.207Z,13.25
2019-06-20T03:45:39.507Z,14.75
2019-06-20T03:46:44.231Z,14.07
2019-06-20T03:47:49.944Z,18.50
2019-06-20T03:48:54.631Z,16.05
2019-06-20T03:49:59.899Z,19.70
2019-06-20T03:51:04.638Z,17.60
2019-06-20T03:52:09.855Z,17.40
2019-06-20T03:53:15.179Z,18.60
2019-06-20T03:54:20.527Z,14.85
2019-06-20T03:55:25.327Z,14.47
2019-06-20T03:56:31.151Z,17.82
2019-06-20T03:57:36.821Z,12.88
2019-06-20T03:58:42.210Z,15.63
2019-06-20T03:59:46.963Z,13.08
2019-06-20T04:00:52.531Z,21.02
2019-06-20T04:01:57.692Z,17.23
2019-06-20T04:03:03.195Z,16.77
2019-06-20T04:04:07.942Z,16.37
2019-06-20T04:05:13.376Z,19.52
2019-06-20T04:06:18.023Z,18.17
2019-06-20T04:07:23.408Z,17.52
2019-06-20T04:08:27.974Z,13.93
2019-06-20T04:09:33.306Z,13.95
2019-06-20T04:10:38.600Z,14.95
2019-06-20T04:11:43.854Z,23.55
2019-06-20T04:12:48.522Z,19.37
2019-06-20T04:13:53.775Z,18.48
2019-06-20T04:14:58.811Z,17.10
2019-06-20T04:16:04.075Z,15.58
2019-06-20T04:17:08.757Z,28.17
2019-06-20T04:18:14.334Z,18.73
2019-06-20T04:19:18.991Z,20.12
2019-06-20T04:20:24.331Z,32.15
2019-06-20T04:21:29.616Z,18.30
2019-06-20T04:22:34.910Z,25.10
2019-06-20T04:23:39.613Z,21.60
2019-06-20T04:24:44.839Z,29.52
2019-06-20T04:25:49.516Z,23.52
2019-06-20T04:26:54.779Z,17.65
2019-06-20T04:27:59.423Z,18.37
2019-06-20T04:29:05.282Z,18.30
2019-06-20T04:30:10.045Z,18.27
2019-06-20T04:31:15.523Z,16.00
2019-06-20T04:32:20.167Z,18.80
2019-06-20T04:33:25.419Z,23.30
2019-06-20T04:34:30.098Z,22.65
2019-06-20T04:35:35.390Z,18.05
2019-06-20T04:36:40.106Z,19.80
2019-06-20T04:37:45.337Z,19.35
2019-06-20T04:38:50.129Z,23.45
2019-06-20T04:39:55.367Z,17.98
2019-06-20T04:41:00.068Z,16.55
2019-06-20T04:42:05.338Z,17.15
2019-06-20T04:43:10.036Z,20.23
2019-06-20T04:44:15.243Z,19.37
2019-06-20T04:45:38.415Z,23.98
2019-06-20T04:46:48.597Z,19.27
2019-06-20T04:47:53.284Z,22.55
2019-06-20T04:48:58.516Z,27.58
2019-06-20T04:50:03.347Z,23.92
2019-06-20T04:51:09.039Z,28.62
2019-06-20T04:52:13.716Z,19.25
2019-06-20T04:53:18.947Z,22.17
2019-06-20T04:54:23.637Z,24.27
2019-06-20T04:55:28.894Z,24.72
2019-06-20T04:56:33.564Z,27.75
2019-06-20T04:57:39.163Z,20.85
2019-06-20T04:58:43.846Z,25.85
2019-06-20T04:59:51.418Z,22.20
2019-06-20T05:00:56.112Z,23.98
2019-06-20T05:02:01.418Z,24.60
2019-06-20T05:03:06.072Z,20.30
2019-06-20T05:04:11.292Z,25.45
2019-06-20T05:05:16.058Z,23.22
2019-06-20T05:06:21.418Z,26.93
2019-06-20T05:07:26.099Z,28.35
2019-06-20T05:08:31.740Z,25.72
2019-06-20T05:09:36.383Z,22.87
2019-06-20T05:10:41.671Z,19.02
2019-06-20T05:11:46.488Z,22.77
2019-06-20T05:12:51.742Z,19.65
2019-06-20T05:13:56.535Z,24.47
2019-06-20T05:15:02.435Z,19.90
2019-06-20T05:16:07.171Z,25.37
2019-06-20T05:17:12.487Z,25.05
2019-06-20T05:18:17.312Z,19.25
2019-06-20T05:19:23.113Z,30.80
2019-06-20T05:20:27.818Z,22.40
2019-06-20T05:21:33.201Z,29.87
2019-06-20T05:22:37.937Z,24.85
2019-06-20T05:23:43.561Z,21.95
2019-06-20T05:24:48.214Z,20.77
2019-06-20T05:25:53.534Z,19.92
2019-06-20T05:27:04.115Z,27.45
2019-06-20T05:28:09.491Z,20.72
2019-06-20T05:29:14.207Z,19.25
2019-06-20T05:30:19.747Z,23.83
2019-06-20T05:31:24.445Z,19.45
2019-06-20T05:32:29.867Z,19.20
2019-06-20T05:33:34.764Z,23.77
2019-06-20T05:34:40.136Z,19.75
2019-06-20T05:35:44.818Z,20.97
2019-06-20T05:36:50.171Z,19.37
2019-06-20T05:37:55.260Z,19.23
2019-06-20T05:39:00.485Z,19.82
2019-06-20T05:40:07.348Z,17.62
2019-06-20T05:41:12.591Z,21.80
2019-06-20T05:42:17.255Z,21.82
2019-06-20T05:43:22.584Z,18.60
2019-06-20T05:44:27.265Z,25.57
2019-06-20T05:45:32.539Z,17.90
2019-06-20T05:46:37.238Z,19.77
2019-06-20T05:47:42.673Z,17.90
2019-06-20T05:48:47.386Z,17.65
2019-06-20T05:49:52.618Z,20.62
2019-06-20T05:50:57.765Z,18.23
2019-06-20T05:52:02.987Z,20.10
2019-06-20T05:53:07.800Z,21.10
2019-06-20T05:54:13.145Z,25.72
2019-06-20T05:55:18.150Z,18.50
2019-06-20T05:56:23.795Z,22.10
2019-06-20T05:57:28.451Z,16.27
2019-06-20T05:58:33.681Z,22.40
2019-06-20T05:59:38.337Z,25.52
2019-06-20T06:00:43.708Z,20.75
2019-06-20T06:01:48.452Z,17.05
2019-06-20T06:02:53.740Z,16.55
2019-06-20T06:03:59.143Z,17.98
2019-06-20T06:05:04.875Z,18.73
2019-06-20T06:06:10.792Z,16.77
2019-06-20T06:07:17.437Z,17.32
2019-06-20T06:08:22.777Z,17.60
2019-06-20T06:09:27.972Z,18.05
2019-06-20T06:10:33.635Z,16.52
2019-06-20T06:11:38.900Z,16.35
2019-06-20T06:12:43.669Z,14.87
2019-06-20T06:13:49.366Z,17.15
2019-06-20T06:15:00.079Z,21.57
2019-06-20T06:16:04.451Z,19.42
2019-06-20T06:17:09.125Z,16.10
2019-06-20T06:18:17.065Z,20.40
2019-06-20T06:19:21.732Z,21.80
2019-06-20T06:20:27.455Z,15.10
2019-06-20T06:21:32.155Z,15.43
2019-06-20T06:22:37.555Z,14.85
2019-06-20T06:23:42.300Z,14.60
2019-06-20T06:24:47.524Z,19.85
2019-06-20T06:25:52.692Z,15.48
2019-06-20T06:27:04.333Z,14.55
2019-06-20T06:28:12.339Z,15.72
2019-06-20T06:29:16.731Z,13.78
2019-06-20T06:30:22.136Z,15.63
2019-06-20T06:31:27.529Z,15.88
2019-06-20T06:32:39.966Z,13.55
2019-06-20T06:33:46.634Z,13.45
2019-06-20T06:34:51.406Z,18.95
2019-06-20T06:36:02.450Z,11.28
2019-06-20T06:37:07.918Z,15.90
2019-06-20T06:38:13.289Z,14.93
2019-06-20T06:39:20.516Z,20.37
2019-06-20T06:40:26.177Z,17.37
2019-06-20T06:41:31.592Z,17.77
2019-06-20T06:42:44.533Z,18.20
2019-06-20T06:43:49.531Z,18.65
2019-06-20T06:44:55.057Z,22.67
2019-06-20T06:45:59.726Z,19.60
2019-06-20T06:47:05.164Z,12.75
2019-06-20T06:48:10.103Z,14.43
2019-06-20T06:49:16.697Z,13.93
2019-06-20T06:50:21.522Z,18.60
2019-06-20T06:51:26.822Z,16.10
2019-06-20T06:52:31.491Z,22.73
2019-06-20T06:53:36.732Z,20.08
2019-06-20T06:54:41.411Z,14.15
2019-06-20T06:55:46.727Z,17.90
2019-06-20T06:57:13.267Z,21.42
2019-06-20T06:58:18.745Z,14.10
2019-06-20T06:59:23.751Z,13.18
2019-06-20T07:00:29.789Z,11.60
2019-06-20T07:01:36.068Z,16.12
2019-06-20T07:02:41.949Z,15.95
2019-06-20T07:03:49.268Z,16.00
2019-06-20T07:04:54.835Z,24.30
2019-06-20T07:06:01.837Z,14.50
2019-06-20T07:07:07.872Z,12.20
2019-06-20T07:08:12.658Z,11.25
2019-06-20T07:09:19.874Z,13.38
2019-06-20T07:10:26.168Z,13.13
2019-06-20T07:11:31.780Z,13.95
2019-06-20T07:12:36.576Z,12.25
2019-06-20T07:13:43.630Z,17.75
2019-06-20T07:14:48.917Z,14.40
2019-06-20T07:15:54.598Z,15.10
2019-06-20T07:17:00.744Z,15.35
2019-06-20T07:18:06.700Z,15.90
2019-06-20T07:19:14.019Z,14.30
2019-06-20T07:20:20.408Z,11.80
2019-06-20T07:21:25.709Z,15.65
2019-06-20T07:22:31.848Z,18.50
2019-06-20T07:23:36.944Z,15.18
2019-06-20T07:24:42.600Z,17.02
2019-06-20T07:26:13.344Z,16.37
2019-06-20T07:27:13.499Z,17.15
2019-06-20T07:28:18.386Z,17.70
2019-06-20T07:29:23.855Z,13.35
2019-06-20T07:30:30.562Z,13.95
2019-06-20T07:31:36.715Z,28.65
2019-06-20T07:32:42.121Z,14.60
2019-06-20T07:33:47.597Z,15.68
2019-06-20T07:34:52.893Z,13.50
2019-06-20T07:35:58.243Z,15.95
2019-06-20T07:37:03.007Z,15.43
2019-06-20T07:38:08.654Z,15.05
2019-06-20T07:39:13.872Z,13.08
2019-06-20T07:40:21.238Z,14.83
2019-06-20T07:41:26.160Z,12.60
2019-06-20T07:42:31.738Z,11.35
2019-06-20T07:43:36.932Z,13.60
2019-06-20T07:44:42.400Z,14.03
2019-06-20T07:46:01.480Z,13.32
2019-06-20T07:46:59.078Z,12.98
2019-06-20T07:48:04.107Z,12.40
2019-06-20T07:49:10.646Z,16.67
2019-06-20T07:50:17.000Z,11.93
2019-06-20T07:51:22.297Z,11.15
2019-06-20T07:52:29.004Z,11.15
2019-06-20T07:53:34.500Z,15.70
2019-06-20T07:54:40.347Z,16.17
2019-06-20T07:55:45.841Z,16.93
2019-06-20T07:56:50.686Z,11.03
2019-06-20T07:57:56.172Z,12.68
2019-06-20T07:59:01.649Z,12.15
2019-06-20T08:00:10.421Z,13.68
2019-06-20T08:01:18.637Z,17.32
2019-06-20T08:03:18.390Z,14.68
2019-06-20T08:04:43.738Z,11.73
2019-06-20T08:06:58.723Z,12.35
2019-06-20T08:08:07.719Z,13.65
2019-06-20T08:09:43.939Z,15.80
2019-06-20T08:10:45.416Z,11.18
2019-06-20T08:12:01.612Z,13.75
2019-06-20T08:13:26.243Z,11.78
2019-06-20T08:14:34.180Z,10.65
2019-06-20T08:16:35.864Z,14.33
2019-06-20T08:17:47.201Z,16.05
2019-06-20T08:19:11.519Z,11.73
2019-06-20T08:20:23.407Z,14.85
2019-06-20T08:21:45.025Z,12.47
2019-06-20T08:23:41.459Z,13.40
2019-06-20T08:24:56.696Z,11.50
2019-06-20T08:26:26.390Z,11.57
2019-06-20T08:28:21.777Z,10.63
2019-06-20T08:30:11.528Z,13.75
2019-06-20T08:31:57.938Z,12.35
2019-06-20T08:33:31.960Z,11.43
2019-06-20T08:34:47.049Z,12.95
2019-06-20T08:35:58.721Z,12.73
2019-06-20T08:37:06.417Z,12.53
2019-06-20T08:38:21.645Z,13.08
2019-06-20T08:39:32.091Z,9.28
2019-06-20T08:40:44.284Z,12.45
2019-06-20T08:42:02.058Z,11.30
2019-06-20T08:43:16.304Z,10.90
2019-06-20T08:44:25.598Z,10.60
2019-06-20T08:45:43.660Z,12.23
2019-06-20T08:46:50.026Z,11.08
2019-06-20T08:47:58.266Z,9.08
2019-06-20T08:49:07.511Z,11.75
2019-06-20T08:50:15.329Z,11.12
2019-06-20T08:51:25.984Z,10.45
2019-06-20T08:52:31.354Z,12.18
2019-06-20T08:53:49.366Z,14.20
2019-06-20T08:54:56.648Z,13.48
2019-06-20T08:56:14.877Z,9.15
2019-06-20T08:57:24.443Z,9.08
2019-06-20T08:58:31.683Z,9.68
2019-06-20T08:59:58.607Z,9.55
2019-06-20T09:01:13.271Z,11.68
2019-06-20T09:02:21.219Z,17.82
2019-06-20T09:03:42.385Z,10.03
2019-06-20T09:04:55.209Z,10.80
2019-06-20T09:06:55.202Z,7.35
2019-06-20T09:08:11.505Z,11.68
2019-06-20T09:09:27.997Z,9.55
2019-06-20T09:10:45.838Z,8.78
2019-06-20T09:11:51.467Z,8.90
2019-06-20T09:12:57.298Z,10.75
2019-06-20T09:14:32.708Z,7.90
2019-06-20T09:15:41.182Z,9.25
2019-06-20T09:16:49.845Z,11.33
2019-06-20T09:17:58.484Z,14.70
2019-06-20T09:19:06.355Z,10.08
2019-06-20T09:20:22.157Z,7.53
2019-06-20T09:21:46.048Z,11.88
2019-06-20T09:22:52.344Z,8.80
2019-06-20T09:24:02.078Z,7.83
2019-06-20T09:25:09.144Z,8.10
2019-06-20T09:26:18.673Z,7.83
2019-06-20T09:27:30.789Z,14.95
2019-06-20T09:28:40.035Z,8.33
2019-06-20T09:29:54.341Z,8.88
2019-06-20T09:31:14.012Z,10.70
2019-06-20T09:32:25.089Z,9.65
2019-06-20T09:33:31.996Z,8.83
2019-06-20T09:34:40.073Z,10.38
2019-06-20T09:35:46.232Z,8.75
2019-06-20T09:37:34.236Z,14.83
2019-06-20T09:39:12.875Z,9.20
2019-06-20T09:40:31.379Z,7.15
2019-06-20T09:44:25.656Z,7.60
2019-06-20T09:45:37.774Z,7.90
2019-06-20T09:47:02.537Z,7.15
2019-06-20T09:48:18.957Z,6.70
2019-06-20T09:49:27.269Z,7.00
2019-06-20T09:52:24.548Z,8.90
2019-06-20T09:53:33.295Z,7.97
2019-06-20T09:54:48.526Z,13.30
2019-06-20T09:56:10.813Z,6.65
2019-06-20T09:57:28.468Z,8.10
2019-06-20T09:58:35.817Z,14.05
2019-06-20T09:59:55.897Z,8.78
2019-06-20T10:00:52.950Z,10.40
2019-06-20T10:02:00.645Z,6.80
2019-06-20T10:03:11.035Z,9.65
2019-06-20T10:04:50.667Z,9.08
2019-06-20T10:06:29.948Z,10.45
2019-06-20T10:08:15.677Z,7.10
2019-06-20T10:09:49.904Z,9.20
2019-06-20T10:13:25.041Z,8.33
2019-06-20T10:14:49.493Z,7.58
2019-06-20T10:15:55.663Z,7.70
2019-06-20T10:17:02.343Z,9.38
2019-06-20T10:18:09.480Z,8.23
2019-06-20T10:19:40.925Z,8.53
2019-06-20T10:23:53.941Z,13.83
2019-06-20T10:25:01.309Z,10.03
2019-06-20T10:27:16.919Z,8.90
2019-06-20T10:28:22.818Z,10.00
2019-06-20T10:29:30.132Z,7.62
2019-06-20T10:30:35.977Z,9.18
2019-06-20T10:31:41.277Z,9.20
2019-06-20T10:32:48.683Z,8.58
2019-06-20T10:33:54.288Z,9.55
2019-06-20T10:34:59.669Z,11.10
2019-06-20T10:36:05.038Z,9.45
2019-06-20T10:37:10.716Z,8.45
2019-06-20T10:38:24.416Z,8.30
2019-06-20T10:39:31.031Z,8.50
2019-06-20T10:42:13.732Z,6.95
2019-06-20T10:43:18.877Z,10.20
2019-06-20T10:44:32.873Z,10.45
2019-06-20T10:46:07.222Z,8.48
2019-06-20T10:47:28.973Z,8.65
2019-06-20T10:48:37.945Z,6.80
2019-06-20T10:49:44.709Z,7.95
2019-06-20T10:50:52.091Z,9.05
2019-06-20T10:52:00.372Z,6.70
2019-06-20T10:53:08.385Z,6.50
2019-06-20T10:54:13.766Z,9.95
2019-06-20T10:55:19.371Z,6.55
2019-06-20T10:56:25.211Z,6.10
2019-06-20T10:57:29.996Z,9.08
2019-06-20T10:58:35.843Z,10.82
2019-06-20T10:59:41.646Z,5.28
2019-06-20T11:01:00.112Z,6.95
2019-06-20T11:02:07.308Z,6.35
2019-06-20T11:03:12.783Z,11.35
2019-06-20T11:04:18.267Z,7.47
2019-06-20T11:05:24.063Z,9.05
2019-06-20T11:06:29.021Z,14.18
2019-06-20T11:07:35.688Z,16.95
2019-06-20T11:08:41.808Z,9.28
2019-06-20T11:09:57.179Z,10.60
2019-06-20T11:11:02.214Z,9.23
2019-06-20T11:12:10.519Z,9.65
2019-06-20T11:13:15.799Z,11.75
2019-06-20T11:14:24.643Z,9.25
2019-06-20T11:15:52.482Z,8.88
2019-06-20T11:16:58.741Z,12.30
2019-06-20T11:18:03.920Z,10.13
2019-06-20T11:19:09.871Z,9.63
2019-06-20T11:20:15.254Z,11.97
2019-06-20T11:21:21.817Z,11.08
2019-06-20T11:22:27.668Z,10.88
2019-06-20T11:23:34.368Z,9.43
2019-06-20T11:24:40.935Z,9.60
2019-06-20T11:25:46.688Z,60.90
2019-06-20T11:26:51.553Z,21.48
2019-06-20T11:28:10.528Z,10.05
2019-06-20T11:29:15.874Z,10.23
2019-06-20T11:30:45.006Z,9.68
2019-06-20T11:31:43.383Z,8.10
2019-06-20T11:33:15.064Z,8.10
2019-06-20T11:34:20.731Z,8.10
2019-06-20T11:35:26.209Z,7.50
2019-06-20T11:36:32.213Z,9.25
2019-06-20T11:37:45.183Z,6.85
2019-06-20T11:38:58.829Z,6.42
2019-06-20T11:40:10.192Z,7.28
2019-06-20T11:41:18.948Z,6.55
2019-06-20T11:42:24.909Z,5.60
2019-06-20T11:43:35.183Z,6.72
2019-06-20T11:44:43.840Z,9.93
2019-06-20T11:46:02.014Z,11.12
2019-06-20T11:47:07.333Z,7.47
2019-06-20T11:48:14.887Z,7.53
2019-06-20T11:49:23.163Z,9.30
2019-06-20T11:50:29.904Z,8.05
2019-06-20T11:51:35.955Z,6.60
2019-06-20T11:52:43.997Z,7.30
2019-06-20T11:53:48.130Z,10.60
2019-06-20T11:54:52.821Z,8.58
2019-06-20T11:55:58.123Z,8.73
2019-06-20T11:57:02.837Z,10.63
2019-06-20T11:58:08.128Z,14.85
2019-06-20T11:59:12.871Z,12.00
2019-06-20T12:00:18.729Z,10.70
2019-06-20T12:01:32.521Z,11.15
2019-06-20T12:02:30.822Z,10.18
2019-06-20T12:03:35.922Z,9.75
2019-06-20T12:04:41.480Z,11.53
2019-06-20T12:05:47.846Z,10.75
2019-06-20T12:06:53.219Z,12.70
2019-06-20T12:07:58.005Z,7.42
2019-06-20T12:09:04.276Z,9.10
2019-06-20T12:10:14.281Z,5.85
2019-06-20T12:11:19.866Z,8.75
2019-06-20T12:12:25.260Z,8.75
2019-06-20T12:13:30.667Z,11.45
2019-06-20T12:14:35.401Z,10.93
2019-06-20T12:15:42.753Z,9.60
2019-06-20T12:16:48.702Z,12.23
2019-06-20T12:17:54.623Z,9.18
2019-06-20T12:18:59.448Z,7.03
2019-06-20T12:20:06.365Z,8.08
2019-06-20T12:21:11.494Z,8.63
2019-06-20T12:22:16.900Z,9.20
2019-06-20T12:23:27.041Z,8.13
2019-06-20T12:24:32.329Z,12.58
2019-06-20T12:25:40.964Z,11.40
2019-06-20T12:26:48.666Z,13.58
2019-06-20T12:27:54.331Z,15.00
2019-06-20T12:28:59.842Z,11.10
2019-06-20T12:30:06.098Z,16.42
2019-06-20T12:31:19.506Z,10.10
2019-06-20T12:32:20.283Z,8.35
2019-06-20T12:33:26.040Z,7.92
2019-06-20T12:34:32.225Z,8.40
2019-06-20T12:35:41.368Z,9.75
2019-06-20T12:36:47.101Z,8.73
2019-06-20T12:37:52.838Z,12.23
2019-06-20T12:38:59.935Z,9.65
2019-06-20T12:40:10.351Z,8.03
2019-06-20T12:41:16.149Z,8.15
2019-06-20T12:42:23.840Z,9.80
2019-06-20T12:43:29.036Z,7.90
2019-06-20T12:44:34.568Z,9.70
2019-06-20T12:45:53.996Z,9.43
2019-06-20T12:46:59.871Z,11.05
2019-06-20T12:48:05.845Z,10.43
2019-06-20T12:49:11.433Z,9.93
2019-06-20T12:50:18.324Z,9.35
2019-06-20T12:51:24.293Z,12.73
2019-06-20T12:52:29.272Z,7.65
2019-06-20T12:53:35.010Z,14.95
2019-06-20T12:54:41.398Z,12.80
2019-06-20T12:55:47.530Z,10.55
2019-06-20T12:56:53.252Z,11.18
2019-06-20T12:57:58.745Z,10.75
2019-06-20T12:59:04.608Z,13.78
2019-06-20T13:00:11.370Z,9.35
2019-06-20T13:01:44.217Z,13.65
2019-06-20T13:02:49.780Z,9.75
2019-06-20T13:03:57.901Z,10.13
2019-06-20T13:05:07.187Z,12.75
2019-06-20T13:06:55.713Z,12.45
2019-06-20T13:08:02.679Z,13.48
2019-06-20T13:09:08.592Z,11.05
2019-06-20T13:10:14.067Z,8.98
2019-06-20T13:11:50.425Z,11.00
2019-06-20T13:12:56.264Z,12.85
2019-06-20T13:14:03.609Z,55.63
2019-06-20T13:15:09.271Z,23.07
2019-06-20T13:16:31.805Z,29.10
2019-06-20T13:17:38.285Z,16.32
2019-06-20T13:18:46.262Z,23.02
2019-06-20T13:19:52.373Z,20.82
2019-06-20T13:21:40.618Z,18.85
2019-06-20T13:22:58.428Z,13.28
2019-06-20T13:24:04.192Z,11.93
2019-06-20T13:25:10.277Z,14.50
2019-06-20T13:26:32.981Z,14.15
2019-06-20T13:27:41.096Z,18.57
2019-06-20T13:29:03.524Z,15.03
2019-06-20T13:32:49.483Z,14.25
2019-06-20T13:33:57.881Z,18.67
2019-06-20T13:35:05.637Z,17.57
2019-06-20T13:36:13.011Z,19.57
2019-06-20T13:37:21.457Z,52.40
2019-06-20T13:38:27.237Z,23.60
2019-06-20T13:39:32.661Z,18.57
2019-06-20T13:40:57.363Z,23.15
2019-06-20T13:42:06.487Z,46.73
2019-06-20T13:43:16.771Z,33.10
2019-06-20T13:44:44.122Z,19.92
2019-06-20T13:46:44.655Z,70.32
2019-06-20T13:47:54.942Z,41.40
2019-06-20T13:49:01.360Z,26.25
2019-06-20T13:50:10.053Z,27.93
2019-06-20T13:51:19.420Z,23.55
2019-06-20T13:52:25.854Z,23.07
2019-06-20T13:53:32.637Z,21.60
2019-06-20T13:54:39.641Z,29.45
2019-06-20T13:55:53.899Z,22.15
2019-06-20T13:57:00.145Z,20.15
2019-06-20T13:58:11.231Z,22.93
2019-06-20T13:59:16.809Z,20.10
2019-06-20T14:00:30.378Z,16.90
2019-06-20T14:01:46.111Z,20.17
2019-06-20T14:02:58.797Z,26.17
2019-06-20T14:04:07.178Z,19.45
2019-06-20T14:05:13.632Z,21.50
2019-06-20T14:06:47.414Z,19.27
2019-06-20T14:07:56.019Z,21.60
2019-06-20T14:09:02.256Z,20.72
2019-06-20T14:10:11.361Z,22.07
2019-06-20T14:11:21.744Z,29.55
2019-06-20T14:13:19.444Z,21.05
2019-06-20T14:14:26.253Z,24.07
2019-06-20T14:15:32.447Z,22.67
2019-06-20T14:16:38.407Z,20.15
2019-06-20T14:17:44.938Z,29.50
2019-06-20T14:18:50.803Z,28.65
2019-06-20T14:19:56.546Z,26.30
2019-06-20T14:21:02.883Z,22.85
2019-06-20T14:22:08.336Z,20.45
2019-06-20T14:23:14.086Z,22.07
2019-06-20T14:24:19.509Z,17.85
2019-06-20T14:25:25.573Z,24.45
2019-06-20T14:26:30.685Z,18.90
2019-06-20T14:27:36.732Z,21.73
2019-06-20T14:28:46.011Z,24.67
2019-06-20T14:29:51.929Z,18.35
2019-06-20T14:30:57.918Z,18.17
2019-06-20T14:32:04.076Z,19.90
2019-06-20T14:33:09.479Z,17.90
2019-06-20T14:34:15.617Z,15.70
2019-06-20T14:35:22.036Z,19.65
2019-06-20T14:36:27.899Z,17.52
2019-06-20T14:37:33.953Z,17.90
2019-06-20T14:38:39.501Z,21.52
2019-06-20T14:39:45.022Z,18.50
2019-06-20T14:40:52.434Z,18.48
2019-06-20T14:41:57.360Z,23.45
2019-06-20T14:43:04.432Z,20.12
2019-06-20T14:44:12.908Z,16.93
2019-06-20T14:45:21.983Z,38.73
2019-06-20T14:46:28.322Z,19.82
2019-06-20T14:47:35.126Z,24.23
2019-06-20T14:48:40.289Z,21.02
2019-06-20T14:49:46.301Z,17.05
2019-06-20T14:50:53.311Z,18.27
2019-06-20T14:52:00.195Z,19.05
2019-06-20T14:53:06.147Z,20.17
2019-06-20T14:54:12.949Z,21.85
2019-06-20T14:55:20.709Z,19.62
2019-06-20T14:56:28.926Z,17.65
2019-06-20T14:57:39.652Z,18.77
2019-06-20T14:58:49.119Z,20.90
2019-06-20T14:59:54.705Z,15.15
2019-06-20T15:01:02.287Z,19.25
2019-06-20T15:02:08.989Z,20.32
2019-06-20T15:03:15.838Z,17.70
2019-06-20T17:19:56.441Z,22.22
2019-06-20T17:21:38.520Z,11.10
2019-06-20T17:22:56.840Z,12.70